createdAt,value
2019-01-28T00:01:00.517Z,98245.11
2019-01-28T00:03:29.204Z,98245.02
2019-01-28T00:05:57.780Z,98254.05
2019-01-28T00:08:26.416Z,98256.89
2019-01-28T00:10:54.994Z,98263.41
2019-01-28T00:13:23.638Z,98263.19
2019-01-28T00:15:52.465Z,98259.02
2019-01-28T00:18:21.142Z,98263.59
2019-01-28T00:20:49.743Z,98263.78
2019-01-28T00:23:18.340Z,98262.23
2019-01-28T00:25:46.966Z,98258.11
2019-01-28T00:28:15.581Z,98264.80
2019-01-28T00:30:44.216Z,98254.50
2019-01-28T00:33:12.820Z,98260.38
2019-01-28T00:35:41.417Z,98273.45
2019-01-28T00:38:10.006Z,98272.81
2019-01-28T00:40:38.606Z,98267.02
2019-01-28T00:43:07.186Z,98268.54
2019-01-28T00:45:35.775Z,98267.62
2019-01-28T00:48:04.661Z,98263.25
2019-01-28T00:50:33.256Z,98270.27
2019-01-28T00:53:01.899Z,98266.69
2019-01-28T00:55:30.494Z,98257.13
2019-01-28T00:57:59.080Z,98262.34
2019-01-28T01:00:28.419Z,98268.01
2019-01-28T01:02:57.061Z,98266.91
2019-01-28T01:05:25.739Z,98269.50
2019-01-28T01:07:54.381Z,98265.23
2019-01-28T01:10:22.955Z,98276.82
2019-01-28T01:12:51.597Z,98272.77
2019-01-28T01:15:20.259Z,98277.98
2019-01-28T01:17:49.216Z,98275.42
2019-01-28T01:20:17.836Z,98274.17
2019-01-28T01:22:46.440Z,98271.94
2019-01-28T01:25:15.217Z,98283.73
2019-01-28T01:27:43.847Z,98281.81
2019-01-28T01:30:14.776Z,98276.21
2019-01-28T01:32:43.354Z,98284.87
2019-01-28T01:35:11.928Z,98286.61
2019-01-28T01:37:40.553Z,98283.92
2019-01-28T01:40:11.731Z,98288.30
2019-01-28T01:42:40.343Z,98282.75
2019-01-28T01:45:10.433Z,98289.91
2019-01-28T01:47:39.067Z,98285.42
2019-01-28T01:50:08.634Z,98277.17
2019-01-28T01:52:37.190Z,98283.99
2019-01-28T01:55:06.643Z,98286.12
2019-01-28T01:57:35.263Z,98280.44
2019-01-28T02:00:05.584Z,98280.02
2019-01-28T02:02:34.180Z,98281.86
2019-01-28T02:05:02.795Z,98266.27
2019-01-28T02:07:31.403Z,98265.05
2019-01-28T02:09:59.994Z,98276.34
2019-01-28T02:12:28.685Z,98267.88
2019-01-28T02:14:57.259Z,98259.34
2019-01-28T02:17:25.945Z,98254.26
2019-01-28T02:19:54.525Z,98265.97
2019-01-28T02:22:23.109Z,98262.59
2019-01-28T02:24:51.744Z,98260.80
2019-01-28T02:27:20.327Z,98266.27
2019-01-28T02:29:48.968Z,98257.72
2019-01-28T02:32:17.550Z,98263.02
2019-01-28T02:34:46.152Z,98260.58
2019-01-28T02:37:14.723Z,98255.80
2019-01-28T02:39:43.318Z,98255.48
2019-01-28T02:42:11.907Z,98259.34
2019-01-28T02:44:40.486Z,98250.61
2019-01-28T02:47:09.046Z,98255.52
2019-01-28T02:49:38.351Z,98239.00
2019-01-28T02:52:07.027Z,98239.51
2019-01-28T02:54:35.577Z,98247.06
2019-01-28T02:57:04.148Z,98248.48
2019-01-28T02:59:32.740Z,98242.97
2019-01-28T03:02:01.317Z,98251.02
2019-01-28T03:04:29.956Z,98244.06
2019-01-28T03:06:58.564Z,98244.91
2019-01-28T03:09:27.171Z,98253.02
2019-01-28T03:11:55.783Z,98244.27
2019-01-28T03:14:24.497Z,98242.03
2019-01-28T03:16:54.750Z,98247.22
2019-01-28T03:19:23.391Z,98242.03
2019-01-28T03:21:52.035Z,98244.89
2019-01-28T03:24:20.625Z,98234.49
2019-01-28T03:26:49.204Z,98234.63
2019-01-28T03:29:17.791Z,98227.19
2019-01-28T03:31:46.507Z,98232.06
2019-01-28T03:34:15.126Z,98226.27
2019-01-28T03:36:43.720Z,98221.91
2019-01-28T03:39:12.373Z,98226.18
2019-01-28T03:41:42.506Z,98222.52
2019-01-28T03:44:11.079Z,98221.49
2019-01-28T03:46:39.719Z,98220.47
2019-01-28T03:49:08.319Z,98218.84
2019-01-28T03:51:36.934Z,98217.52
2019-01-28T03:54:05.545Z,98227.59
2019-01-28T03:56:34.137Z,98231.05
2019-01-28T03:59:02.897Z,98222.00
2019-01-28T04:01:31.513Z,98223.02
2019-01-28T04:04:00.126Z,98217.73
2019-01-28T04:06:28.766Z,98213.04
2019-01-28T04:08:57.416Z,98214.27
2019-01-28T04:11:26.107Z,98220.17
2019-01-28T04:13:54.706Z,98210.60
2019-01-28T04:16:23.296Z,98208.26
2019-01-28T04:18:51.969Z,98213.25
2019-01-28T04:21:20.725Z,98205.01
2019-01-28T04:23:49.255Z,98214.58
2019-01-28T04:26:21.566Z,98208.47
2019-01-28T04:28:50.411Z,98201.94
2019-01-28T04:31:19.002Z,98204.70
2019-01-28T04:33:47.635Z,98198.89
2019-01-28T04:36:16.260Z,98188.31
2019-01-28T04:38:44.864Z,98194.63
2019-01-28T04:41:14.404Z,98186.56
2019-01-28T04:43:43.421Z,98186.56
2019-01-28T04:46:12.183Z,98186.27
2019-01-28T04:48:40.996Z,98173.45
2019-01-28T04:51:09.651Z,98179.22
2019-01-28T04:53:38.296Z,98168.23
2019-01-28T04:56:06.976Z,98160.52
2019-01-28T04:58:35.657Z,98160.00
2019-01-28T05:01:04.259Z,98161.20
2019-01-28T05:03:32.945Z,98160.01
2019-01-28T05:06:01.585Z,98161.12
2019-01-28T05:08:30.184Z,98150.83
2019-01-28T05:10:58.809Z,98160.20
2019-01-28T05:13:27.487Z,98160.39
2019-01-28T05:15:56.093Z,98160.72
2019-01-28T05:18:24.953Z,98158.25
2019-01-28T05:20:54.506Z,98162.02
2019-01-28T05:23:23.093Z,98154.50
2019-01-28T05:25:51.759Z,98145.84
2019-01-28T05:28:20.384Z,98146.77
2019-01-28T05:30:49.051Z,98145.97
2019-01-28T05:33:17.671Z,98142.30
2019-01-28T05:35:46.273Z,98149.30
2019-01-28T05:38:14.898Z,98137.22
2019-01-28T05:40:43.524Z,98127.02
2019-01-28T05:43:12.160Z,98121.52
2019-01-28T05:45:40.827Z,98117.25
2019-01-28T05:48:09.430Z,98127.74
2019-01-28T05:50:38.020Z,98119.80
2019-01-28T05:53:06.667Z,98124.98
2019-01-28T05:55:35.318Z,98116.86
2019-01-28T05:58:03.934Z,98112.47
2019-01-28T06:00:39.384Z,98120.61
2019-01-28T06:03:08.003Z,98119.30
2019-01-28T06:05:36.598Z,98118.06
2019-01-28T06:08:05.465Z,98116.14
2019-01-28T06:10:34.215Z,98110.03
2019-01-28T06:13:02.789Z,98101.58
2019-01-28T06:15:31.462Z,98107.69
2019-01-28T06:18:00.045Z,98109.52
2019-01-28T06:20:28.695Z,98105.34
2019-01-28T06:22:57.317Z,98101.37
2019-01-28T06:25:25.945Z,98099.53
2019-01-28T06:27:54.536Z,98102.69
2019-01-28T06:30:30.823Z,98101.79
2019-01-28T06:32:59.428Z,98109.00
2019-01-28T06:35:28.059Z,98105.13
2019-01-28T06:37:56.646Z,98107.08
2019-01-28T06:40:27.582Z,98104.94
2019-01-28T06:42:56.145Z,98105.13
2019-01-28T06:45:24.838Z,98101.06
2019-01-28T06:47:53.430Z,98102.81
2019-01-28T06:50:22.049Z,98102.91
2019-01-28T06:52:50.660Z,98102.00
2019-01-28T06:55:19.269Z,98103.33
2019-01-28T06:57:48.184Z,98096.71
2019-01-28T07:00:22.478Z,98089.16
2019-01-28T07:02:51.160Z,98091.42
2019-01-28T07:05:19.755Z,98091.20
2019-01-28T07:07:48.429Z,98088.27
2019-01-28T07:10:17.284Z,98103.81
2019-01-28T07:12:45.914Z,98095.18
2019-01-28T07:15:14.595Z,98095.87
2019-01-28T07:17:43.186Z,98103.80
2019-01-28T07:20:15.302Z,98088.86
2019-01-28T07:22:43.894Z,98099.15
2019-01-28T07:25:12.476Z,98100.17
2019-01-28T07:27:41.115Z,98101.07
2019-01-28T07:30:12.856Z,98101.80
2019-01-28T07:32:41.466Z,98097.83
2019-01-28T07:35:10.692Z,98102.81
2019-01-28T07:37:39.267Z,98115.62
2019-01-28T07:40:08.756Z,98097.31
2019-01-28T07:42:37.359Z,98102.70
2019-01-28T07:45:08.525Z,98102.81
2019-01-28T07:47:37.129Z,98096.38
2019-01-28T07:50:05.888Z,98111.44
2019-01-28T07:52:34.484Z,98047.55
2019-01-28T07:55:03.176Z,98126.00
2019-01-28T07:57:31.727Z,98132.61
2019-01-28T08:00:00.392Z,98115.83
2019-01-28T08:02:29.065Z,98127.63
2019-01-28T08:04:57.685Z,98147.28
2019-01-28T08:07:26.273Z,98135.88
2019-01-28T08:09:54.894Z,98139.22
2019-01-28T08:12:23.525Z,98136.05
2019-01-28T08:14:52.179Z,98136.47
2019-01-28T08:17:20.777Z,98134.02
2019-01-28T08:19:49.361Z,98134.74
2019-01-28T08:22:18.084Z,98136.14
2019-01-28T08:24:46.691Z,98145.30
2019-01-28T08:27:15.379Z,98145.06
2019-01-28T08:29:43.996Z,98138.45
2019-01-28T08:32:12.631Z,98139.74
2019-01-28T08:34:41.189Z,98134.34
2019-01-28T08:37:09.747Z,98134.19
2019-01-28T08:39:38.417Z,98142.72
2019-01-28T08:42:07.078Z,98148.41
2019-01-28T08:44:36.046Z,98151.26
2019-01-28T08:47:04.686Z,98145.67
2019-01-28T08:49:33.344Z,98145.54
2019-01-28T08:52:01.978Z,98146.66
2019-01-28T08:54:30.568Z,98144.33
2019-01-28T08:56:59.241Z,98150.63
2019-01-28T08:59:27.840Z,98141.75
2019-01-28T09:01:56.436Z,98137.72
2019-01-28T09:04:25.046Z,98149.70
2019-01-28T09:06:53.730Z,98139.95
2019-01-28T09:09:22.415Z,98147.98
2019-01-28T09:11:51.014Z,98140.48
2019-01-28T09:14:19.635Z,98136.83
2019-01-28T09:16:48.261Z,98144.15
2019-01-28T09:19:16.891Z,98146.89
2019-01-28T09:21:45.531Z,98144.68
2019-01-28T09:24:14.177Z,98139.09
2019-01-28T09:26:42.754Z,98146.70
2019-01-28T09:29:11.423Z,98158.02
2019-01-28T09:31:40.021Z,98152.55
2019-01-28T09:34:08.648Z,98163.84
2019-01-28T09:36:37.335Z,98154.40
2019-01-28T09:39:07.983Z,98167.13
2019-01-28T09:41:36.572Z,98159.84
2019-01-28T09:44:05.448Z,98161.06
2019-01-28T09:46:34.137Z,98169.13
2019-01-28T09:49:02.795Z,98176.94
2019-01-28T09:51:34.115Z,98168.93
2019-01-28T09:54:02.854Z,98171.77
2019-01-28T09:56:31.491Z,98180.33
2019-01-28T09:59:00.071Z,98181.36
2019-01-28T10:01:29.715Z,98183.17
2019-01-28T10:03:58.399Z,98184.50
2019-01-28T10:06:27.209Z,98195.08
2019-01-28T10:08:55.884Z,98193.91
2019-01-28T10:11:24.466Z,98199.41
2019-01-28T10:13:53.183Z,98195.06
2019-01-28T10:16:21.812Z,98183.23
2019-01-28T10:18:50.487Z,98204.59
2019-01-28T10:21:19.093Z,98202.48
2019-01-28T10:23:47.803Z,98207.79
2019-01-28T10:26:16.669Z,98205.34
2019-01-28T10:28:45.338Z,98205.69
2019-01-28T10:31:13.942Z,98205.37
2019-01-28T10:33:42.607Z,98198.06
2019-01-28T10:36:11.197Z,98202.42
2019-01-28T10:38:40.185Z,98205.38
2019-01-28T10:41:08.742Z,98217.20
2019-01-28T10:43:37.503Z,98208.33
2019-01-28T10:46:06.097Z,98212.44
2019-01-28T10:48:34.680Z,98214.58
2019-01-28T10:51:04.486Z,98212.96
2019-01-28T10:53:33.085Z,98234.33
2019-01-28T10:56:01.708Z,98224.37
2019-01-28T10:58:30.340Z,98227.91
2019-01-28T11:00:58.982Z,98226.58
2019-01-28T11:03:27.682Z,98213.12
2019-01-28T11:05:56.248Z,98227.80
2019-01-28T11:08:25.092Z,98229.00
2019-01-28T11:10:53.689Z,98229.13
2019-01-28T11:13:22.261Z,98224.73
2019-01-28T11:15:50.907Z,98222.68
2019-01-28T11:18:25.361Z,98241.43
2019-01-28T11:20:54.032Z,98233.09
2019-01-28T11:23:23.239Z,98242.44
2019-01-28T11:25:51.873Z,98224.91
2019-01-28T11:28:20.776Z,98243.25
2019-01-28T11:30:57.669Z,98238.77
2019-01-28T11:33:26.467Z,98185.74
2019-01-28T11:35:55.194Z,98249.07
2019-01-28T11:38:24.088Z,98240.20
2019-01-28T11:40:52.729Z,98243.22
2019-01-28T11:43:21.571Z,98247.16
2019-01-28T11:45:59.066Z,98241.02
2019-01-28T11:48:27.802Z,98245.49
2019-01-28T11:50:56.498Z,98251.07
2019-01-28T11:53:25.089Z,98252.23
2019-01-28T11:55:53.717Z,98243.25
2019-01-28T11:58:22.422Z,98248.53
2019-01-28T12:00:59.849Z,98249.82
2019-01-28T12:03:28.467Z,98253.31
2019-01-28T12:05:57.072Z,98250.13
2019-01-28T12:08:25.723Z,98252.77
2019-01-28T12:10:54.505Z,98254.58
2019-01-28T12:13:23.109Z,98254.73
2019-01-28T12:15:51.691Z,98270.51
2019-01-28T12:18:20.376Z,98266.38
2019-01-28T12:20:53.600Z,98268.01
2019-01-28T12:23:19.370Z,98273.02
2019-01-28T12:25:48.678Z,98273.20
2019-01-28T12:28:17.384Z,98282.53
2019-01-28T12:30:47.630Z,98290.70
2019-01-28T12:33:16.714Z,98305.60
2019-01-28T12:35:45.665Z,98290.27
2019-01-28T12:38:14.284Z,98290.89
2019-01-28T12:40:42.903Z,98297.86
2019-01-28T12:43:11.573Z,98305.84
2019-01-28T12:45:40.196Z,98307.52
2019-01-28T12:48:08.840Z,98308.06
2019-01-28T12:50:37.493Z,98320.63
2019-01-28T12:53:06.120Z,98314.66
2019-01-28T12:55:34.747Z,98316.48
2019-01-28T12:58:03.372Z,98325.38
2019-01-28T13:00:37.829Z,98330.38
2019-01-28T13:03:06.568Z,98340.05
2019-01-28T13:05:35.607Z,98337.70
2019-01-28T13:08:04.438Z,98343.94
2019-01-28T13:10:33.185Z,98360.45
2019-01-28T13:13:01.821Z,98357.09
2019-01-28T13:15:30.488Z,98353.70
2019-01-28T13:17:59.054Z,98353.69
2019-01-28T13:20:27.816Z,98388.68
2019-01-28T13:22:56.779Z,98377.77
2019-01-28T13:25:26.205Z,98368.35
2019-01-28T13:27:54.774Z,98364.97
2019-01-28T13:30:25.779Z,98378.06
2019-01-28T13:32:54.809Z,98385.38
2019-01-28T13:35:23.610Z,98386.31
2019-01-28T13:37:52.255Z,98387.35
2019-01-28T13:40:21.195Z,98390.62
2019-01-28T13:42:49.777Z,98402.45
2019-01-28T13:45:19.187Z,98409.61
2019-01-28T13:47:48.025Z,98401.23
2019-01-28T13:50:19.029Z,98407.85
2019-01-28T13:52:49.773Z,98414.27
2019-01-28T13:55:18.660Z,98415.09
2019-01-28T13:57:47.242Z,98424.80
2019-01-28T14:00:19.065Z,98430.03
2019-01-28T14:02:48.036Z,98428.36
2019-01-28T14:05:16.586Z,98446.84
2019-01-28T14:07:45.226Z,98437.13
2019-01-28T14:10:14.522Z,98443.08
2019-01-28T14:12:43.146Z,98446.75
2019-01-28T14:15:15.689Z,98455.52
2019-01-28T14:17:44.289Z,98449.29
2019-01-28T14:20:14.963Z,98460.33
2019-01-28T14:22:43.924Z,98464.91
2019-01-28T14:25:14.239Z,98476.53
2019-01-28T14:27:43.399Z,98477.77
2019-01-28T14:30:19.044Z,98474.79
2019-01-28T14:32:47.740Z,98481.24
2019-01-28T14:35:16.753Z,98484.50
2019-01-28T14:37:45.312Z,98492.03
2019-01-28T14:40:16.359Z,98500.20
2019-01-28T14:42:45.051Z,98504.48
2019-01-28T14:45:14.057Z,98506.92
2019-01-28T14:47:42.731Z,98511.75
2019-01-28T14:50:17.840Z,98500.20
2019-01-28T14:52:46.544Z,98509.91
2019-01-28T14:55:15.187Z,98516.84
2019-01-28T14:57:43.768Z,98519.06
2019-01-28T15:00:13.534Z,98508.16
2019-01-28T15:02:42.589Z,98519.58
2019-01-28T15:05:11.527Z,98522.95
2019-01-28T15:07:40.237Z,98531.83
2019-01-28T15:10:11.465Z,98537.95
2019-01-28T15:12:44.421Z,98546.21
2019-01-28T15:15:13.042Z,98539.79
2019-01-28T15:17:41.648Z,98549.38
2019-01-28T15:20:10.390Z,98571.77
2019-01-28T15:22:38.989Z,98559.70
2019-01-28T15:25:08.721Z,98581.86
2019-01-28T15:27:37.300Z,98575.20
2019-01-28T15:30:08.240Z,98568.34
2019-01-28T15:32:37.312Z,98597.70
2019-01-28T15:35:06.026Z,98604.03
2019-01-28T15:37:34.683Z,98587.69
2019-01-28T15:40:03.318Z,98612.59
2019-01-28T15:42:31.944Z,98619.42
2019-01-28T15:45:00.533Z,98609.13
2019-01-28T15:47:29.173Z,98634.34
2019-01-28T15:49:57.757Z,98621.59
2019-01-28T15:52:26.373Z,98633.39
2019-01-28T15:54:55.021Z,98643.02
2019-01-28T15:57:23.736Z,98658.11
2019-01-28T15:59:52.417Z,98659.00
2019-01-28T16:02:21.128Z,98638.88
2019-01-28T16:04:51.252Z,98686.41
2019-01-28T16:07:19.924Z,98700.08
2019-01-28T16:09:48.549Z,98675.80
2019-01-28T16:12:17.159Z,98687.30
2019-01-28T16:14:45.806Z,98694.81
2019-01-28T16:17:14.491Z,98699.44
2019-01-28T16:19:43.076Z,98707.19
2019-01-28T16:22:11.827Z,98701.67
2019-01-28T16:24:40.503Z,98712.52
2019-01-28T16:27:09.202Z,98714.15
2019-01-28T16:29:38.121Z,98729.98
2019-01-28T16:32:06.787Z,98721.59
2019-01-28T16:34:35.477Z,98742.13
2019-01-28T16:37:04.090Z,98727.55
2019-01-28T16:39:32.715Z,98740.39
2019-01-28T16:42:01.365Z,98735.60
2019-01-28T16:44:30.046Z,98747.77
2019-01-28T16:46:58.669Z,98756.89
2019-01-28T16:49:27.319Z,98780.14
2019-01-28T16:51:56.004Z,98766.17
2019-01-28T16:54:25.129Z,98782.72
2019-01-28T16:56:57.307Z,98782.93
2019-01-28T16:59:26.697Z,98781.53
2019-01-28T17:01:55.319Z,98786.61
2019-01-28T17:04:24.164Z,98791.84
2019-01-28T17:06:53.013Z,98800.72
2019-01-28T17:09:21.824Z,98799.80
2019-01-28T17:11:50.463Z,98818.06
2019-01-28T17:14:21.952Z,98820.06
2019-01-28T17:16:50.617Z,98825.47
2019-01-28T17:19:22.052Z,98837.91
2019-01-28T17:21:50.778Z,98828.80
2019-01-28T17:24:19.350Z,98849.39
2019-01-28T17:26:48.151Z,98847.36
2019-01-28T17:29:16.968Z,98887.14
2019-01-28T17:31:45.739Z,98870.23
2019-01-28T17:34:14.429Z,98867.75
2019-01-28T17:36:43.164Z,98874.13
2019-01-28T17:39:12.004Z,98884.88
2019-01-28T17:41:40.870Z,98890.55
2019-01-28T17:44:09.558Z,98882.59
2019-01-28T17:46:38.280Z,98892.07
2019-01-28T17:49:09.740Z,98893.45
2019-01-28T17:51:38.330Z,98898.19
2019-01-28T17:54:07.073Z,98910.23
2019-01-28T17:56:36.021Z,98910.23
2019-01-28T17:59:04.759Z,98915.08
2019-01-28T18:01:33.453Z,98916.81
2019-01-28T18:04:02.098Z,98915.23
2019-01-28T18:06:30.975Z,98914.98
2019-01-28T18:08:59.656Z,98940.88
2019-01-28T18:11:28.325Z,98947.52
2019-01-28T18:13:57.117Z,98979.91
2019-01-28T18:16:25.808Z,98939.55
2019-01-28T18:18:54.499Z,98955.72
2019-01-28T18:21:23.469Z,98963.68
2019-01-28T18:23:53.690Z,98962.41
2019-01-28T18:26:22.440Z,98962.09
2019-01-28T18:28:51.768Z,98969.69
2019-01-28T18:31:21.592Z,98984.02
2019-01-28T18:33:50.241Z,98977.58
2019-01-28T18:36:21.914Z,98983.89
2019-01-28T18:38:50.532Z,98984.96
2019-01-28T18:41:19.135Z,98993.23
2019-01-28T18:43:47.728Z,98994.55
2019-01-28T18:46:16.403Z,99002.50
2019-01-28T18:48:45.038Z,99004.16
2019-01-28T18:51:13.915Z,99024.50
2019-01-28T18:53:42.527Z,99024.50
2019-01-28T18:56:11.094Z,99025.17
2019-01-28T18:58:39.713Z,99041.55
2019-01-28T19:01:08.325Z,99056.70
2019-01-28T19:03:37.521Z,99040.72
2019-01-28T19:06:32.648Z,99055.81
2019-01-28T19:09:17.770Z,99051.33
2019-01-28T19:12:20.839Z,99068.36
2019-01-28T19:14:56.105Z,99065.23
2019-01-28T19:17:50.817Z,99075.77
2019-01-28T19:20:40.093Z,99085.60
2019-01-28T19:23:08.647Z,99093.91
2019-01-28T19:25:37.626Z,99105.50
2019-01-28T19:28:06.248Z,99103.23
2019-01-28T19:30:34.952Z,99102.73
2019-01-28T19:33:03.540Z,99149.60
2019-01-28T19:35:32.156Z,99102.17
2019-01-28T19:38:00.831Z,99140.75
2019-01-28T19:40:29.433Z,99126.28
2019-01-28T19:42:58.026Z,99112.25
2019-01-28T19:45:26.679Z,99121.61
2019-01-28T19:47:55.298Z,99115.17
2019-01-28T19:50:24.956Z,99143.64
2019-01-28T19:52:53.553Z,99138.27
2019-01-28T19:55:22.182Z,99152.73
2019-01-28T19:57:50.834Z,99150.08
2019-01-28T20:00:21.994Z,99161.11
2019-01-28T20:02:50.644Z,99155.77
2019-01-28T20:05:19.256Z,99151.41
2019-01-28T20:07:48.196Z,99159.17
2019-01-28T20:10:16.854Z,99180.38
2019-01-28T20:12:45.460Z,99182.91
2019-01-28T20:15:15.412Z,99181.59
2019-01-28T20:17:43.970Z,99176.64
2019-01-28T20:20:13.813Z,99178.66
2019-01-28T20:22:42.388Z,99197.02
2019-01-28T20:25:11.671Z,99191.64
2019-01-28T20:27:40.329Z,99191.05
2019-01-28T20:30:20.925Z,99202.91
2019-01-28T20:32:49.489Z,99206.07
2019-01-28T20:35:18.108Z,99205.16
2019-01-28T20:37:46.738Z,99205.39
2019-01-28T20:40:15.486Z,99207.94
2019-01-28T20:42:44.056Z,99211.32
2019-01-28T20:45:14.555Z,99230.73
2019-01-28T20:47:43.162Z,99218.71
2019-01-28T20:50:14.319Z,99228.05
2019-01-28T20:52:42.929Z,99237.05
2019-01-28T20:55:11.580Z,99224.17
2019-01-28T20:57:40.164Z,99221.42
2019-01-28T21:00:15.792Z,99242.00
2019-01-28T21:02:44.375Z,99244.37
2019-01-28T21:05:14.174Z,99244.78
2019-01-28T21:07:42.846Z,99271.31
2019-01-28T21:10:12.599Z,99257.74
2019-01-28T21:12:41.231Z,99270.87
2019-01-28T21:15:11.781Z,99270.81
2019-01-28T21:17:40.432Z,99283.23
2019-01-28T21:20:11.579Z,99296.28
2019-01-28T21:22:40.158Z,99297.00
2019-01-28T21:25:11.339Z,99300.77
2019-01-28T21:27:39.896Z,99307.91
2019-01-28T21:30:10.868Z,99313.30
2019-01-28T21:32:39.580Z,99309.48
2019-01-28T21:35:09.524Z,99322.25
2019-01-28T21:37:46.098Z,99318.67
2019-01-28T21:40:15.257Z,99320.08
2019-01-28T21:42:43.878Z,99336.39
2019-01-28T21:45:13.015Z,99332.13
2019-01-28T21:47:53.336Z,99347.13
2019-01-28T21:50:23.269Z,99339.23
2019-01-28T21:52:51.863Z,99339.27
2019-01-28T21:55:20.469Z,99346.92
2019-01-28T21:57:49.151Z,99339.13
2019-01-28T22:00:17.840Z,99347.88
2019-01-28T22:02:46.411Z,99346.56
2019-01-28T22:05:14.996Z,99344.09
2019-01-28T22:07:43.581Z,99347.73
2019-01-28T22:10:12.773Z,99336.52
2019-01-28T22:12:41.428Z,99341.30
2019-01-28T22:15:12.941Z,99339.33
2019-01-28T22:17:41.550Z,99343.48
2019-01-28T22:20:10.539Z,99345.94
2019-01-28T22:22:39.211Z,99357.54
2019-01-28T22:25:09.537Z,99369.41
2019-01-28T22:27:38.109Z,99371.71
2019-01-28T22:30:09.439Z,99379.44
2019-01-28T22:32:38.079Z,99375.63
2019-01-28T22:35:07.982Z,99384.23
2019-01-28T22:37:36.645Z,99383.06
2019-01-28T22:40:06.069Z,99388.17
2019-01-28T22:42:34.761Z,99389.49
2019-01-28T22:45:03.753Z,99388.67
2019-01-28T22:47:32.506Z,99392.64
2019-01-28T22:50:01.209Z,99398.58
2019-01-28T22:52:29.843Z,99398.22
2019-01-28T22:54:58.474Z,99397.25
2019-01-28T22:57:27.144Z,99397.42
2019-01-28T22:59:55.741Z,99390.84
2019-01-28T23:02:24.392Z,99392.99
2019-01-28T23:04:53.088Z,99399.42
2019-01-28T23:07:21.708Z,99405.05
2019-01-28T23:09:50.359Z,99408.30
2019-01-28T23:12:18.992Z,99411.77
2019-01-28T23:14:47.581Z,99407.33
2019-01-28T23:17:16.209Z,99418.59
2019-01-28T23:19:44.843Z,99431.84
2019-01-28T23:22:16.515Z,99424.40
2019-01-28T23:24:43.881Z,99421.28
2019-01-28T23:27:12.639Z,99419.13
2019-01-28T23:29:41.210Z,99436.49
2019-01-28T23:32:09.867Z,99437.48
2019-01-28T23:34:38.500Z,99435.84
2019-01-28T23:37:07.168Z,99437.47
2019-01-28T23:39:35.768Z,99446.88
2019-01-28T23:42:04.498Z,99444.10
2019-01-28T23:44:33.488Z,99448.88
2019-01-28T23:47:02.260Z,99459.14
2019-01-28T23:49:30.968Z,99452.36
2019-01-28T23:51:59.716Z,99451.56
2019-01-28T23:54:28.325Z,99467.56
2019-01-28T23:56:57.006Z,99472.50
2019-01-28T23:59:25.673Z,99475.48
